sensor_id;sensor_type;location;lat;lon;timestamp;temperature;humidity
49218;DHT22;35045;51.194;7.268;2023-09-07T00:01:30;19.60;99.90
49218;DHT22;35045;51.194;7.268;2023-09-07T00:03:56;19.60;99.90
49218;DHT22;35045;51.194;7.268;2023-09-07T00:06:22;19.60;99.90
49218;DHT22;35045;51.194;7.268;2023-09-07T00:08:49;19.50;99.90
49218;DHT22;35045;51.194;7.268;2023-09-07T00:11:15;19.40;99.90
49218;DHT22;35045;51.194;7.268;2023-09-07T00:13:41;19.40;99.90
49218;DHT22;35045;51.194;7.268;2023-09-07T00:16:07;19.40;99.90
49218;DHT22;35045;51.194;7.268;2023-09-07T00:18:34;19.30;99.90
49218;DHT22;35045;51.194;7.268;2023-09-07T00:21:00;19.30;99.90
49218;DHT22;35045;51.194;7.268;2023-09-07T00:23:26;19.30;99.90
49218;DHT22;35045;51.194;7.268;2023-09-07T00:25:52;19.30;99.90
49218;DHT22;35045;51.194;7.268;2023-09-07T00:28:19;19.30;99.90
49218;DHT22;35045;51.194;7.268;2023-09-07T00:30:45;19.30;99.90
49218;DHT22;35045;51.194;7.268;2023-09-07T00:33:11;19.30;99.90
49218;DHT22;35045;51.194;7.268;2023-09-07T00:35:37;19.30;99.90
49218;DHT22;35045;51.194;7.268;2023-09-07T00:38:03;19.20;99.90
49218;DHT22;35045;51.194;7.268;2023-09-07T00:40:29;19.30;99.90
49218;DHT22;35045;51.194;7.268;2023-09-07T00:42:55;19.20;99.90
49218;DHT22;35045;51.194;7.268;2023-09-07T00:45:21;19.20;99.90
49218;DHT22;35045;51.194;7.268;2023-09-07T00:47:48;19.20;99.90
49218;DHT22;35045;51.194;7.268;2023-09-07T00:50:14;19.20;99.90
49218;DHT22;35045;51.194;7.268;2023-09-07T00:52:42;19.20;99.90
49218;DHT22;35045;51.194;7.268;2023-09-07T00:55:08;19.20;99.90
49218;DHT22;35045;51.194;7.268;2023-09-07T00:57:35;19.10;99.90
49218;DHT22;35045;51.194;7.268;2023-09-07T01:00:03;19.00;99.90
49218;DHT22;35045;51.194;7.268;2023-09-07T01:02:30;19.00;99.90
49218;DHT22;35045;51.194;7.268;2023-09-07T01:04:57;19.00;99.90
49218;DHT22;35045;51.194;7.268;2023-09-07T01:07:29;19.00;99.90
49218;DHT22;35045;51.194;7.268;2023-09-07T01:09:59;19.00;99.90
49218;DHT22;35045;51.194;7.268;2023-09-07T01:12:26;19.00;99.90
49218;DHT22;35045;51.194;7.268;2023-09-07T01:14:52;19.00;99.90
49218;DHT22;35045;51.194;7.268;2023-09-07T01:17:19;19.00;99.90
49218;DHT22;35045;51.194;7.268;2023-09-07T01:19:50;19.00;99.90
49218;DHT22;35045;51.194;7.268;2023-09-07T01:22:17;19.00;99.90
49218;DHT22;35045;51.194;7.268;2023-09-07T01:24:44;19.00;99.90
49218;DHT22;35045;51.194;7.268;2023-09-07T01:27:11;19.10;99.90
49218;DHT22;35045;51.194;7.268;2023-09-07T01:29:39;19.00;99.90
49218;DHT22;35045;51.194;7.268;2023-09-07T01:32:05;19.00;99.90
49218;DHT22;35045;51.194;7.268;2023-09-07T01:34:32;19.00;99.90
49218;DHT22;35045;51.194;7.268;2023-09-07T01:36:58;18.90;99.90
49218;DHT22;35045;51.194;7.268;2023-09-07T01:39:24;18.90;99.90
49218;DHT22;35045;51.194;7.268;2023-09-07T01:41:50;18.90;99.90
49218;DHT22;35045;51.194;7.268;2023-09-07T01:44:16;19.00;99.90
49218;DHT22;35045;51.194;7.268;2023-09-07T01:46:42;19.00;99.90
49218;DHT22;35045;51.194;7.268;2023-09-07T01:49:08;18.90;99.90
49218;DHT22;35045;51.194;7.268;2023-09-07T01:51:36;18.90;99.90
49218;DHT22;35045;51.194;7.268;2023-09-07T01:54:02;19.00;99.90
49218;DHT22;35045;51.194;7.268;2023-09-07T01:56:29;19.00;99.90
49218;DHT22;35045;51.194;7.268;2023-09-07T01:58:55;18.90;99.90
49218;DHT22;35045;51.194;7.268;2023-09-07T02:01:22;18.80;99.90
49218;DHT22;35045;51.194;7.268;2023-09-07T02:03:48;18.80;99.90
49218;DHT22;35045;51.194;7.268;2023-09-07T02:06:14;18.80;99.90
49218;DHT22;35045;51.194;7.268;2023-09-07T02:08:40;18.80;99.90
49218;DHT22;35045;51.194;7.268;2023-09-07T02:11:06;18.80;99.90
49218;DHT22;35045;51.194;7.268;2023-09-07T02:13:32;18.80;99.90
49218;DHT22;35045;51.194;7.268;2023-09-07T02:16:02;18.80;99.90
49218;DHT22;35045;51.194;7.268;2023-09-07T02:18:28;18.80;99.90
49218;DHT22;35045;51.194;7.268;2023-09-07T02:20:55;18.80;99.90
49218;DHT22;35045;51.194;7.268;2023-09-07T02:23:26;18.80;99.90
49218;DHT22;35045;51.194;7.268;2023-09-07T02:25:52;18.80;99.90
49218;DHT22;35045;51.194;7.268;2023-09-07T02:28:18;18.70;99.90
49218;DHT22;35045;51.194;7.268;2023-09-07T02:30:44;18.70;99.90
49218;DHT22;35045;51.194;7.268;2023-09-07T02:33:10;18.80;99.90
49218;DHT22;35045;51.194;7.268;2023-09-07T02:35:37;18.80;99.90
49218;DHT22;35045;51.194;7.268;2023-09-07T02:38:03;18.70;99.90
49218;DHT22;35045;51.194;7.268;2023-09-07T02:40:29;18.70;99.90
49218;DHT22;35045;51.194;7.268;2023-09-07T02:42:55;18.70;99.90
49218;DHT22;35045;51.194;7.268;2023-09-07T02:45:21;18.60;99.90
49218;DHT22;35045;51.194;7.268;2023-09-07T02:47:47;18.60;99.90
49218;DHT22;35045;51.194;7.268;2023-09-07T02:50:16;18.50;99.90
49218;DHT22;35045;51.194;7.268;2023-09-07T02:52:43;18.50;99.90
49218;DHT22;35045;51.194;7.268;2023-09-07T02:55:09;18.50;99.90
49218;DHT22;35045;51.194;7.268;2023-09-07T02:57:36;18.40;99.90
49218;DHT22;35045;51.194;7.268;2023-09-07T03:00:02;18.40;99.90
49218;DHT22;35045;51.194;7.268;2023-09-07T03:02:36;18.40;99.90
49218;DHT22;35045;51.194;7.268;2023-09-07T03:05:02;18.50;99.90
49218;DHT22;35045;51.194;7.268;2023-09-07T03:07:32;18.50;99.90
49218;DHT22;35045;51.194;7.268;2023-09-07T03:09:58;18.50;99.90
49218;DHT22;35045;51.194;7.268;2023-09-07T03:12:24;18.50;99.90
49218;DHT22;35045;51.194;7.268;2023-09-07T03:14:50;18.50;99.90
49218;DHT22;35045;51.194;7.268;2023-09-07T03:17:16;18.60;99.90
49218;DHT22;35045;51.194;7.268;2023-09-07T03:19:43;18.50;99.90
49218;DHT22;35045;51.194;7.268;2023-09-07T03:22:09;18.50;99.90
49218;DHT22;35045;51.194;7.268;2023-09-07T03:24:35;18.50;99.90
49218;DHT22;35045;51.194;7.268;2023-09-07T03:27:01;18.50;99.90
49218;DHT22;35045;51.194;7.268;2023-09-07T03:29:29;18.40;99.90
49218;DHT22;35045;51.194;7.268;2023-09-07T03:31:55;18.40;99.90
49218;DHT22;35045;51.194;7.268;2023-09-07T03:34:21;18.30;99.90
49218;DHT22;35045;51.194;7.268;2023-09-07T03:36:47;18.30;99.90
49218;DHT22;35045;51.194;7.268;2023-09-07T03:39:13;18.20;99.90
49218;DHT22;35045;51.194;7.268;2023-09-07T03:41:40;18.20;99.90
49218;DHT22;35045;51.194;7.268;2023-09-07T03:44:06;18.10;99.90
49218;DHT22;35045;51.194;7.268;2023-09-07T03:46:32;18.10;99.90
49218;DHT22;35045;51.194;7.268;2023-09-07T03:48:58;18.10;99.90
49218;DHT22;35045;51.194;7.268;2023-09-07T03:51:25;18.20;99.90
49218;DHT22;35045;51.194;7.268;2023-09-07T03:53:51;18.20;99.90
49218;DHT22;35045;51.194;7.268;2023-09-07T03:56:17;18.20;99.90
49218;DHT22;35045;51.194;7.268;2023-09-07T03:58:43;18.10;99.90
49218;DHT22;35045;51.194;7.268;2023-09-07T04:01:09;18.00;99.90
49218;DHT22;35045;51.194;7.268;2023-09-07T04:03:35;18.00;99.90
49218;DHT22;35045;51.194;7.268;2023-09-07T04:06:01;17.90;99.90
49218;DHT22;35045;51.194;7.268;2023-09-07T04:08:28;17.90;99.90
49218;DHT22;35045;51.194;7.268;2023-09-07T04:10:54;17.90;99.90
49218;DHT22;35045;51.194;7.268;2023-09-07T04:13:20;17.90;99.90
49218;DHT22;35045;51.194;7.268;2023-09-07T04:15:46;17.90;99.90
49218;DHT22;35045;51.194;7.268;2023-09-07T04:18:12;17.90;99.90
49218;DHT22;35045;51.194;7.268;2023-09-07T04:20:41;17.90;99.90
49218;DHT22;35045;51.194;7.268;2023-09-07T04:23:07;17.80;99.90
49218;DHT22;35045;51.194;7.268;2023-09-07T04:25:33;17.90;99.90
49218;DHT22;35045;51.194;7.268;2023-09-07T04:27:59;17.80;99.90
49218;DHT22;35045;51.194;7.268;2023-09-07T04:30:25;17.80;99.90
49218;DHT22;35045;51.194;7.268;2023-09-07T04:32:51;17.80;99.90
49218;DHT22;35045;51.194;7.268;2023-09-07T04:35:17;17.80;99.90
49218;DHT22;35045;51.194;7.268;2023-09-07T04:37:44;17.70;99.90
49218;DHT22;35045;51.194;7.268;2023-09-07T04:40:10;17.80;99.90
49218;DHT22;35045;51.194;7.268;2023-09-07T04:42:37;17.80;99.90
49218;DHT22;35045;51.194;7.268;2023-09-07T04:45:06;17.80;99.90
49218;DHT22;35045;51.194;7.268;2023-09-07T04:47:33;17.80;99.90
49218;DHT22;35045;51.194;7.268;2023-09-07T04:49:59;17.80;99.90
49218;DHT22;35045;51.194;7.268;2023-09-07T04:52:25;17.80;99.90
49218;DHT22;35045;51.194;7.268;2023-09-07T04:54:51;17.80;99.90
49218;DHT22;35045;51.194;7.268;2023-09-07T04:57:17;17.80;99.90
49218;DHT22;35045;51.194;7.268;2023-09-07T04:59:44;17.80;99.90
49218;DHT22;35045;51.194;7.268;2023-09-07T05:02:10;17.90;99.90
49218;DHT22;35045;51.194;7.268;2023-09-07T05:04:38;17.90;99.90
49218;DHT22;35045;51.194;7.268;2023-09-07T05:07:04;17.90;99.90
49218;DHT22;35045;51.194;7.268;2023-09-07T05:09:30;17.90;99.90
49218;DHT22;35045;51.194;7.268;2023-09-07T05:11:57;17.90;99.90
49218;DHT22;35045;51.194;7.268;2023-09-07T05:14:23;17.90;99.90
49218;DHT22;35045;51.194;7.268;2023-09-07T05:16:49;17.90;99.90
49218;DHT22;35045;51.194;7.268;2023-09-07T05:19:16;17.80;99.90
49218;DHT22;35045;51.194;7.268;2023-09-07T05:21:42;17.80;99.90
49218;DHT22;35045;51.194;7.268;2023-09-07T05:24:08;17.80;99.90
49218;DHT22;35045;51.194;7.268;2023-09-07T05:26:34;17.90;99.90
49218;DHT22;35045;51.194;7.268;2023-09-07T05:29:00;17.90;99.90
49218;DHT22;35045;51.194;7.268;2023-09-07T05:31:26;18.00;99.90
49218;DHT22;35045;51.194;7.268;2023-09-07T05:33:52;18.10;99.90
49218;DHT22;35045;51.194;7.268;2023-09-07T05:36:18;18.10;99.90
49218;DHT22;35045;51.194;7.268;2023-09-07T05:38:44;18.20;99.90
49218;DHT22;35045;51.194;7.268;2023-09-07T05:41:10;18.20;99.90
49218;DHT22;35045;51.194;7.268;2023-09-07T05:43:37;18.30;99.90
49218;DHT22;35045;51.194;7.268;2023-09-07T05:46:03;18.40;99.90
49218;DHT22;35045;51.194;7.268;2023-09-07T05:48:29;18.50;99.90
49218;DHT22;35045;51.194;7.268;2023-09-07T05:50:55;18.50;99.90
49218;DHT22;35045;51.194;7.268;2023-09-07T05:53:21;18.60;99.90
49218;DHT22;35045;51.194;7.268;2023-09-07T05:55:47;18.70;99.90
49218;DHT22;35045;51.194;7.268;2023-09-07T05:58:13;18.70;99.90
49218;DHT22;35045;51.194;7.268;2023-09-07T06:00:40;18.80;99.90
49218;DHT22;35045;51.194;7.268;2023-09-07T06:03:09;18.90;99.90
49218;DHT22;35045;51.194;7.268;2023-09-07T06:05:36;19.10;99.90
49218;DHT22;35045;51.194;7.268;2023-09-07T06:08:02;19.20;99.90
49218;DHT22;35045;51.194;7.268;2023-09-07T06:10:29;19.30;99.90
49218;DHT22;35045;51.194;7.268;2023-09-07T06:12:56;19.40;99.90
49218;DHT22;35045;51.194;7.268;2023-09-07T06:15:22;19.50;99.90
49218;DHT22;35045;51.194;7.268;2023-09-07T06:17:48;19.60;99.90
49218;DHT22;35045;51.194;7.268;2023-09-07T06:20:15;19.70;99.90
49218;DHT22;35045;51.194;7.268;2023-09-07T06:22:41;19.80;99.90
49218;DHT22;35045;51.194;7.268;2023-09-07T06:25:07;19.90;99.90
49218;DHT22;35045;51.194;7.268;2023-09-07T06:27:34;19.90;99.90
49218;DHT22;35045;51.194;7.268;2023-09-07T06:30:00;20.10;99.90
49218;DHT22;35045;51.194;7.268;2023-09-07T06:32:26;20.10;99.90
49218;DHT22;35045;51.194;7.268;2023-09-07T06:34:52;20.20;99.90
49218;DHT22;35045;51.194;7.268;2023-09-07T06:37:18;20.20;99.90
49218;DHT22;35045;51.194;7.268;2023-09-07T06:39:44;20.30;99.90
49218;DHT22;35045;51.194;7.268;2023-09-07T06:42:10;20.40;99.90
49218;DHT22;35045;51.194;7.268;2023-09-07T06:44:36;20.50;99.90
49218;DHT22;35045;51.194;7.268;2023-09-07T06:47:02;20.60;99.90
49218;DHT22;35045;51.194;7.268;2023-09-07T06:49:28;20.60;99.90
49218;DHT22;35045;51.194;7.268;2023-09-07T06:51:56;20.70;99.90
49218;DHT22;35045;51.194;7.268;2023-09-07T06:54:22;20.80;99.90
49218;DHT22;35045;51.194;7.268;2023-09-07T06:56:48;20.90;99.90
49218;DHT22;35045;51.194;7.268;2023-09-07T06:59:14;21.00;99.90
49218;DHT22;35045;51.194;7.268;2023-09-07T07:01:40;21.10;99.90
49218;DHT22;35045;51.194;7.268;2023-09-07T07:04:06;21.10;99.90
49218;DHT22;35045;51.194;7.268;2023-09-07T07:06:33;21.20;99.90
49218;DHT22;35045;51.194;7.268;2023-09-07T07:08:59;21.30;99.90
49218;DHT22;35045;51.194;7.268;2023-09-07T07:11:25;21.40;99.90
49218;DHT22;35045;51.194;7.268;2023-09-07T07:13:51;21.40;99.90
49218;DHT22;35045;51.194;7.268;2023-09-07T07:16:18;21.60;99.90
49218;DHT22;35045;51.194;7.268;2023-09-07T07:18:44;21.60;99.90
49218;DHT22;35045;51.194;7.268;2023-09-07T07:21:16;21.70;99.90
49218;DHT22;35045;51.194;7.268;2023-09-07T07:23:42;21.80;99.90
49218;DHT22;35045;51.194;7.268;2023-09-07T07:26:08;21.90;99.90
49218;DHT22;35045;51.194;7.268;2023-09-07T07:28:34;22.00;99.90
49218;DHT22;35045;51.194;7.268;2023-09-07T07:31:07;22.10;99.90
49218;DHT22;35045;51.194;7.268;2023-09-07T07:33:33;22.20;99.90
49218;DHT22;35045;51.194;7.268;2023-09-07T07:35:59;22.20;99.90
49218;DHT22;35045;51.194;7.268;2023-09-07T07:38:25;22.30;99.90
49218;DHT22;35045;51.194;7.268;2023-09-07T07:40:51;22.40;99.90
49218;DHT22;35045;51.194;7.268;2023-09-07T07:43:18;22.40;99.90
49218;DHT22;35045;51.194;7.268;2023-09-07T07:45:45;22.50;99.90
49218;DHT22;35045;51.194;7.268;2023-09-07T07:48:11;22.60;99.90
49218;DHT22;35045;51.194;7.268;2023-09-07T07:50:37;22.70;99.90
49218;DHT22;35045;51.194;7.268;2023-09-07T07:53:05;22.70;99.90
49218;DHT22;35045;51.194;7.268;2023-09-07T07:55:38;22.80;99.90
49218;DHT22;35045;51.194;7.268;2023-09-07T07:58:05;22.80;99.90
49218;DHT22;35045;51.194;7.268;2023-09-07T08:00:34;22.90;99.90
49218;DHT22;35045;51.194;7.268;2023-09-07T08:03:00;23.00;99.90
49218;DHT22;35045;51.194;7.268;2023-09-07T08:05:29;23.10;99.90
49218;DHT22;35045;51.194;7.268;2023-09-07T08:07:56;23.10;99.90
49218;DHT22;35045;51.194;7.268;2023-09-07T08:10:22;23.10;99.90
49218;DHT22;35045;51.194;7.268;2023-09-07T08:12:48;23.20;99.90
49218;DHT22;35045;51.194;7.268;2023-09-07T08:15:14;23.20;99.90
49218;DHT22;35045;51.194;7.268;2023-09-07T08:17:40;23.30;99.90
49218;DHT22;35045;51.194;7.268;2023-09-07T08:20:06;23.40;99.90
49218;DHT22;35045;51.194;7.268;2023-09-07T08:22:36;23.40;99.90
49218;DHT22;35045;51.194;7.268;2023-09-07T08:25:06;23.40;99.90
49218;DHT22;35045;51.194;7.268;2023-09-07T08:27:33;23.50;99.90
49218;DHT22;35045;51.194;7.268;2023-09-07T08:29:59;23.50;99.90
49218;DHT22;35045;51.194;7.268;2023-09-07T08:32:25;23.60;99.90
49218;DHT22;35045;51.194;7.268;2023-09-07T08:34:51;23.60;99.90
49218;DHT22;35045;51.194;7.268;2023-09-07T08:37:22;23.70;99.90
49218;DHT22;35045;51.194;7.268;2023-09-07T08:39:50;23.80;99.90
49218;DHT22;35045;51.194;7.268;2023-09-07T08:42:16;23.90;99.90
49218;DHT22;35045;51.194;7.268;2023-09-07T08:44:42;23.90;99.90
49218;DHT22;35045;51.194;7.268;2023-09-07T08:47:12;24.00;99.90
49218;DHT22;35045;51.194;7.268;2023-09-07T08:49:40;24.10;99.90
49218;DHT22;35045;51.194;7.268;2023-09-07T08:52:07;24.20;99.80
49218;DHT22;35045;51.194;7.268;2023-09-07T08:54:34;24.30;99.70
49218;DHT22;35045;51.194;7.268;2023-09-07T08:57:01;24.40;99.90
49218;DHT22;35045;51.194;7.268;2023-09-07T08:59:29;24.40;99.90
49218;DHT22;35045;51.194;7.268;2023-09-07T09:01:56;24.40;99.90
49218;DHT22;35045;51.194;7.268;2023-09-07T09:04:23;24.50;99.60
49218;DHT22;35045;51.194;7.268;2023-09-07T09:06:50;24.60;99.30
49218;DHT22;35045;51.194;7.268;2023-09-07T09:09:23;24.60;99.30
49218;DHT22;35045;51.194;7.268;2023-09-07T09:11:50;24.70;99.40
49218;DHT22;35045;51.194;7.268;2023-09-07T09:14:17;24.90;99.10
49218;DHT22;35045;51.194;7.268;2023-09-07T09:16:50;24.90;99.00
49218;DHT22;35045;51.194;7.268;2023-09-07T09:19:16;25.00;99.10
49218;DHT22;35045;51.194;7.268;2023-09-07T09:21:44;25.10;98.80
49218;DHT22;35045;51.194;7.268;2023-09-07T09:24:10;25.10;98.70
49218;DHT22;35045;51.194;7.268;2023-09-07T09:26:37;25.30;98.60
49218;DHT22;35045;51.194;7.268;2023-09-07T09:29:03;25.40;98.70
49218;DHT22;35045;51.194;7.268;2023-09-07T09:31:29;25.50;98.70
49218;DHT22;35045;51.194;7.268;2023-09-07T09:33:55;25.50;98.50
49218;DHT22;35045;51.194;7.268;2023-09-07T09:36:21;25.60;98.40
49218;DHT22;35045;51.194;7.268;2023-09-07T09:38:48;25.70;98.60
49218;DHT22;35045;51.194;7.268;2023-09-07T09:41:17;25.80;97.70
49218;DHT22;35045;51.194;7.268;2023-09-07T09:43:43;25.80;98.00
49218;DHT22;35045;51.194;7.268;2023-09-07T09:46:12;25.90;98.10
49218;DHT22;35045;51.194;7.268;2023-09-07T09:48:38;26.00;98.10
49218;DHT22;35045;51.194;7.268;2023-09-07T09:51:04;26.10;98.40
49218;DHT22;35045;51.194;7.268;2023-09-07T09:53:30;26.10;98.10
49218;DHT22;35045;51.194;7.268;2023-09-07T09:55:57;26.20;97.80
49218;DHT22;35045;51.194;7.268;2023-09-07T09:58:23;26.20;97.20
49218;DHT22;35045;51.194;7.268;2023-09-07T10:00:49;26.20;97.30
49218;DHT22;35045;51.194;7.268;2023-09-07T10:03:32;26.20;97.50
49218;DHT22;35045;51.194;7.268;2023-09-07T10:06:08;26.20;97.50
49218;DHT22;35045;51.194;7.268;2023-09-07T10:08:34;26.20;97.50
49218;DHT22;35045;51.194;7.268;2023-09-07T10:11:00;26.30;96.60
49218;DHT22;35045;51.194;7.268;2023-09-07T10:13:32;26.30;97.10
49218;DHT22;35045;51.194;7.268;2023-09-07T10:16:05;26.40;97.10
49218;DHT22;35045;51.194;7.268;2023-09-07T10:18:33;26.50;96.60
49218;DHT22;35045;51.194;7.268;2023-09-07T10:21:00;26.50;96.50
49218;DHT22;35045;51.194;7.268;2023-09-07T10:23:41;26.60;96.80
49218;DHT22;35045;51.194;7.268;2023-09-07T10:26:13;26.70;96.90
49218;DHT22;35045;51.194;7.268;2023-09-07T10:28:40;26.80;96.30
49218;DHT22;35045;51.194;7.268;2023-09-07T10:31:06;26.80;96.30
49218;DHT22;35045;51.194;7.268;2023-09-07T10:33:33;26.90;96.50
49218;DHT22;35045;51.194;7.268;2023-09-07T10:35:59;27.10;97.50
49218;DHT22;35045;51.194;7.268;2023-09-07T10:38:26;27.20;96.70
49218;DHT22;35045;51.194;7.268;2023-09-07T10:40:55;27.20;96.30
49218;DHT22;35045;51.194;7.268;2023-09-07T10:43:24;27.20;95.90
49218;DHT22;35045;51.194;7.268;2023-09-07T10:45:50;27.30;95.60
49218;DHT22;35045;51.194;7.268;2023-09-07T10:48:16;27.30;96.40
49218;DHT22;35045;51.194;7.268;2023-09-07T10:50:43;27.40;96.10
49218;DHT22;35045;51.194;7.268;2023-09-07T10:53:11;27.50;96.00
49218;DHT22;35045;51.194;7.268;2023-09-07T10:55:37;27.60;95.90
49218;DHT22;35045;51.194;7.268;2023-09-07T10:58:09;27.60;95.40
49218;DHT22;35045;51.194;7.268;2023-09-07T11:00:36;27.60;95.70
49218;DHT22;35045;51.194;7.268;2023-09-07T11:03:06;27.70;95.90
49218;DHT22;35045;51.194;7.268;2023-09-07T11:05:33;27.70;95.30
49218;DHT22;35045;51.194;7.268;2023-09-07T11:08:03;27.70;95.90
49218;DHT22;35045;51.194;7.268;2023-09-07T11:10:34;27.80;94.80
49218;DHT22;35045;51.194;7.268;2023-09-07T11:13:03;27.80;95.10
49218;DHT22;35045;51.194;7.268;2023-09-07T11:15:30;27.90;95.30
49218;DHT22;35045;51.194;7.268;2023-09-07T11:17:56;27.90;95.50
49218;DHT22;35045;51.194;7.268;2023-09-07T11:20:23;28.00;94.80
49218;DHT22;35045;51.194;7.268;2023-09-07T11:22:49;28.00;95.20
49218;DHT22;35045;51.194;7.268;2023-09-07T11:25:33;28.10;95.70
49218;DHT22;35045;51.194;7.268;2023-09-07T11:28:01;28.20;95.00
49218;DHT22;35045;51.194;7.268;2023-09-07T11:30:27;28.20;95.00
49218;DHT22;35045;51.194;7.268;2023-09-07T11:33:00;28.20;94.30
49218;DHT22;35045;51.194;7.268;2023-09-07T11:35:26;28.30;95.10
49218;DHT22;35045;51.194;7.268;2023-09-07T11:37:52;28.40;95.20
49218;DHT22;35045;51.194;7.268;2023-09-07T11:40:18;28.60;95.10
49218;DHT22;35045;51.194;7.268;2023-09-07T11:42:44;28.60;94.40
49218;DHT22;35045;51.194;7.268;2023-09-07T11:45:10;28.70;94.70
49218;DHT22;35045;51.194;7.268;2023-09-07T11:47:39;28.80;94.00
49218;DHT22;35045;51.194;7.268;2023-09-07T11:50:05;28.90;94.50
49218;DHT22;35045;51.194;7.268;2023-09-07T11:52:32;29.00;93.60
49218;DHT22;35045;51.194;7.268;2023-09-07T11:54:58;29.10;93.10
49218;DHT22;35045;51.194;7.268;2023-09-07T11:57:24;29.30;94.20
49218;DHT22;35045;51.194;7.268;2023-09-07T11:59:50;29.50;93.80
49218;DHT22;35045;51.194;7.268;2023-09-07T12:02:23;29.60;94.10
49218;DHT22;35045;51.194;7.268;2023-09-07T12:04:49;29.70;93.20
49218;DHT22;35045;51.194;7.268;2023-09-07T12:07:15;29.80;92.20
49218;DHT22;35045;51.194;7.268;2023-09-07T12:09:41;29.70;92.60
49218;DHT22;35045;51.194;7.268;2023-09-07T12:12:07;29.80;91.80
49218;DHT22;35045;51.194;7.268;2023-09-07T12:14:33;29.90;92.00
49218;DHT22;35045;51.194;7.268;2023-09-07T12:16:59;30.10;90.90
49218;DHT22;35045;51.194;7.268;2023-09-07T12:19:25;30.30;90.50
49218;DHT22;35045;51.194;7.268;2023-09-07T12:21:51;30.40;91.30
49218;DHT22;35045;51.194;7.268;2023-09-07T12:24:18;30.60;90.40
49218;DHT22;35045;51.194;7.268;2023-09-07T12:26:44;30.70;89.60
49218;DHT22;35045;51.194;7.268;2023-09-07T12:29:10;30.80;87.40
49218;DHT22;35045;51.194;7.268;2023-09-07T12:31:36;30.90;87.60
49218;DHT22;35045;51.194;7.268;2023-09-07T12:34:02;31.10;87.30
49218;DHT22;35045;51.194;7.268;2023-09-07T12:36:28;31.20;88.10
49218;DHT22;35045;51.194;7.268;2023-09-07T12:38:57;31.40;87.30
49218;DHT22;35045;51.194;7.268;2023-09-07T12:41:27;31.50;86.70
49218;DHT22;35045;51.194;7.268;2023-09-07T12:43:54;31.60;88.00
49218;DHT22;35045;51.194;7.268;2023-09-07T12:46:20;31.70;86.00
49218;DHT22;35045;51.194;7.268;2023-09-07T12:48:46;31.80;85.50
49218;DHT22;35045;51.194;7.268;2023-09-07T12:51:12;31.90;85.90
49218;DHT22;35045;51.194;7.268;2023-09-07T12:53:38;32.10;84.60
49218;DHT22;35045;51.194;7.268;2023-09-07T12:56:05;32.30;84.60
49218;DHT22;35045;51.194;7.268;2023-09-07T12:58:31;32.40;83.00
49218;DHT22;35045;51.194;7.268;2023-09-07T13:00:57;32.50;83.90
49218;DHT22;35045;51.194;7.268;2023-09-07T13:03:23;32.50;82.30
49218;DHT22;35045;51.194;7.268;2023-09-07T13:05:49;32.60;81.10
49218;DHT22;35045;51.194;7.268;2023-09-07T13:08:16;32.60;81.30
49218;DHT22;35045;51.194;7.268;2023-09-07T13:10:42;32.70;82.10
49218;DHT22;35045;51.194;7.268;2023-09-07T13:13:08;32.90;82.20
49218;DHT22;35045;51.194;7.268;2023-09-07T13:15:34;32.90;81.00
49218;DHT22;35045;51.194;7.268;2023-09-07T13:18:00;33.10;81.30
49218;DHT22;35045;51.194;7.268;2023-09-07T13:20:26;33.10;79.40
49218;DHT22;35045;51.194;7.268;2023-09-07T13:22:52;32.90;79.30
49218;DHT22;35045;51.194;7.268;2023-09-07T13:25:18;32.90;80.10
49218;DHT22;35045;51.194;7.268;2023-09-07T13:27:44;33.10;80.00
49218;DHT22;35045;51.194;7.268;2023-09-07T13:30:10;33.30;80.00
49218;DHT22;35045;51.194;7.268;2023-09-07T13:32:39;33.50;80.50
49218;DHT22;35045;51.194;7.268;2023-09-07T13:35:05;33.70;79.90
49218;DHT22;35045;51.194;7.268;2023-09-07T13:37:31;34.00;80.10
49218;DHT22;35045;51.194;7.268;2023-09-07T13:39:57;34.00;78.10
49218;DHT22;35045;51.194;7.268;2023-09-07T13:42:24;34.20;78.90
49218;DHT22;35045;51.194;7.268;2023-09-07T13:44:50;34.40;77.20
49218;DHT22;35045;51.194;7.268;2023-09-07T13:47:16;34.70;77.70
49218;DHT22;35045;51.194;7.268;2023-09-07T13:49:43;34.80;77.50
49218;DHT22;35045;51.194;7.268;2023-09-07T13:52:09;34.70;76.80
49218;DHT22;35045;51.194;7.268;2023-09-07T13:54:35;34.80;74.40
49218;DHT22;35045;51.194;7.268;2023-09-07T13:57:01;34.80;72.90
49218;DHT22;35045;51.194;7.268;2023-09-07T13:59:27;34.90;72.70
49218;DHT22;35045;51.194;7.268;2023-09-07T14:01:58;34.90;72.70
49218;DHT22;35045;51.194;7.268;2023-09-07T14:04:24;34.90;72.50
49218;DHT22;35045;51.194;7.268;2023-09-07T14:06:50;35.20;71.80
49218;DHT22;35045;51.194;7.268;2023-09-07T14:09:16;35.30;71.20
49218;DHT22;35045;51.194;7.268;2023-09-07T14:11:43;35.40;71.10
49218;DHT22;35045;51.194;7.268;2023-09-07T14:14:10;35.50;72.10
49218;DHT22;35045;51.194;7.268;2023-09-07T14:16:36;35.60;71.20
49218;DHT22;35045;51.194;7.268;2023-09-07T14:19:02;35.80;70.70
49218;DHT22;35045;51.194;7.268;2023-09-07T14:21:28;35.90;69.70
49218;DHT22;35045;51.194;7.268;2023-09-07T14:23:54;36.00;69.70
49218;DHT22;35045;51.194;7.268;2023-09-07T14:26:21;36.00;68.00
49218;DHT22;35045;51.194;7.268;2023-09-07T14:28:47;36.00;66.70
49218;DHT22;35045;51.194;7.268;2023-09-07T14:31:13;36.00;66.20
49218;DHT22;35045;51.194;7.268;2023-09-07T14:33:39;36.00;66.30
49218;DHT22;35045;51.194;7.268;2023-09-07T14:36:08;36.00;65.30
49218;DHT22;35045;51.194;7.268;2023-09-07T14:38:35;35.90;65.30
49218;DHT22;35045;51.194;7.268;2023-09-07T14:41:09;35.40;63.00
49218;DHT22;35045;51.194;7.268;2023-09-07T14:43:38;35.00;63.50
49218;DHT22;35045;51.194;7.268;2023-09-07T14:46:04;34.60;63.50
49218;DHT22;35045;51.194;7.268;2023-09-07T14:48:30;34.20;63.20
49218;DHT22;35045;51.194;7.268;2023-09-07T14:50:56;33.80;65.50
49218;DHT22;35045;51.194;7.268;2023-09-07T14:53:22;33.50;66.50
49218;DHT22;35045;51.194;7.268;2023-09-07T14:55:48;33.30;66.60
49218;DHT22;35045;51.194;7.268;2023-09-07T14:58:14;33.10;66.70
49218;DHT22;35045;51.194;7.268;2023-09-07T15:00:40;32.70;65.70
49218;DHT22;35045;51.194;7.268;2023-09-07T15:03:06;32.40;65.20
49218;DHT22;35045;51.194;7.268;2023-09-07T15:05:32;32.20;65.40
49218;DHT22;35045;51.194;7.268;2023-09-07T15:07:58;32.10;64.30
49218;DHT22;35045;51.194;7.268;2023-09-07T15:10:26;32.00;64.60
49218;DHT22;35045;51.194;7.268;2023-09-07T15:12:53;31.90;65.30
49218;DHT22;35045;51.194;7.268;2023-09-07T15:15:20;31.90;66.20
49218;DHT22;35045;51.194;7.268;2023-09-07T15:17:46;31.80;65.10
49218;DHT22;35045;51.194;7.268;2023-09-07T15:20:13;31.70;66.20
49218;DHT22;35045;51.194;7.268;2023-09-07T15:22:39;31.90;66.30
49218;DHT22;35045;51.194;7.268;2023-09-07T15:25:05;32.00;66.70
49218;DHT22;35045;51.194;7.268;2023-09-07T15:27:32;31.90;66.60